Time,TemperatureF,DewpointF,PressureIn,WindDirection,WindDirectionDegrees,WindSpeedMPH,WindSpeedGustMPH,Humidity,HourlyPrecipIn,Conditions,Clouds,dailyrainin,SoftwareType,DateUTC
2014-09-22 00:05:00,57.6,51.0,30.06,NW,305,2.0,4.0,79,0.00,,,0.00,weatherlink.com 1.10,2014-09-22 04:05:00,
2014-09-22 00:20:00,57.1,51.0,30.05,North,1,0.0,2.0,80,0.00,,,0.00,weatherlink.com 1.10,2014-09-22 04:20:00,
2014-09-22 00:35:00,56.5,51.0,30.05,North,1,0.0,5.0,82,0.00,,,0.00,weatherlink.com 1.10,2014-09-22 04:35:00,
2014-09-22 00:50:00,55.9,51.0,30.06,NW,317,0.0,3.0,83,0.00,,,0.00,weatherlink.com 1.10,2014-09-22 04:50:00,
2014-09-22 01:05:00,55.9,51.0,30.06,North,354,1.0,6.0,83,0.00,,,0.00,weatherlink.com 1.10,2014-09-22 05:05:00,
2014-09-22 01:20:00,55.7,51.0,30.07,West,277,0.0,6.0,83,0.00,,,0.00,weatherlink.com 1.10,2014-09-22 05:20:00,
2014-09-22 01:35:00,55.4,50.0,30.06,NNW,334,1.0,5.0,83,0.00,,,0.00,weatherlink.com 1.10,2014-09-22 05:35:00,
2014-09-22 01:50:00,54.7,50.0,30.07,NNE,32,0.0,2.0,84,0.00,,,0.00,weatherlink.com 1.10,2014-09-22 05:50:00,
2014-09-22 02:05:00,54.0,50.0,30.07,WSW,245,0.0,1.0,85,0.00,,,0.00,weatherlink.com 1.10,2014-09-22 06:05:00,
2014-09-22 02:20:00,53.3,49.0,30.07,WNW,302,0.0,2.0,86,0.00,,,0.00,weatherlink.com 1.10,2014-09-22 06:20:00,
2014-09-22 02:35:00,52.8,49.0,30.07,SW,232,1.0,3.0,88,0.00,,,0.00,weatherlink.com 1.10,2014-09-22 06:35:00,
2014-09-22 02:50:00,52.8,49.0,30.07,SW,232,0.0,0.0,87,0.00,,,0.00,weatherlink.com 1.10,2014-09-22 06:50:00,
2014-09-22 03:05:00,52.5,49.0,30.07,West,278,0.0,2.0,88,0.00,,,0.00,weatherlink.com 1.10,2014-09-22 07:05:00,
2014-09-22 03:20:00,52.2,49.0,30.08,NW,312,1.0,3.0,89,0.00,,,0.00,weatherlink.com 1.10,2014-09-22 07:20:00,
2014-09-22 03:35:00,52.4,49.0,30.08,NNW,334,3.0,6.0,88,0.00,,,0.00,weatherlink.com 1.10,2014-09-22 07:35:00,
2014-09-22 03:50:00,52.2,49.0,30.09,NW,322,0.0,2.0,88,0.00,,,0.00,weatherlink.com 1.10,2014-09-22 07:50:00,
2014-09-22 04:05:00,52.0,49.0,30.09,NE,44,1.0,5.0,88,0.00,,,0.00,weatherlink.com 1.10,2014-09-22 08:05:00,
2014-09-22 04:20:00,51.8,48.0,30.09,NW,325,2.0,5.0,87,0.00,,,0.00,weatherlink.com 1.10,2014-09-22 08:20:00,
2014-09-22 04:35:00,51.6,48.0,30.09,NNW,341,0.0,5.0,86,0.00,,,0.00,weatherlink.com 1.10,2014-09-22 08:35:00,
2014-09-22 04:50:00,51.3,47.0,30.09,NW,317,1.0,3.0,85,0.00,,,0.00,weatherlink.com 1.10,2014-09-22 08:50:00,
2014-09-22 05:05:00,51.0,47.0,30.10,North,354,1.0,5.0,86,0.00,,,0.00,weatherlink.com 1.10,2014-09-22 09:05:00,
2014-09-22 05:20:00,50.8,46.0,30.11,WNW,294,1.0,7.0,84,0.00,,,0.00,weatherlink.com 1.10,2014-09-22 09:20:00,
2014-09-22 05:35:00,50.5,45.0,30.11,WNW,297,1.0,11.0,81,0.00,,,0.00,weatherlink.com 1.10,2014-09-22 09:35:00,
2014-09-22 05:51:00,50.2,44.0,30.12,NNW,335,4.0,6.0,80,0.00,,,0.00,weatherlink.com 1.10,2014-09-22 09:51:00,
2014-09-22 06:06:00,49.8,44.0,30.13,WNW,290,3.0,9.0,80,0.00,,,0.00,weatherlink.com 1.10,2014-09-22 10:06:00,
2014-09-22 06:21:00,49.5,44.0,30.14,WNW,302,1.0,8.0,80,0.00,,,0.00,weatherlink.com 1.10,2014-09-22 10:21:00,
2014-09-22 06:36:00,49.1,44.0,30.15,NW,318,2.0,4.0,81,0.00,,,0.00,weatherlink.com 1.10,2014-09-22 10:36:00,
2014-09-22 06:51:00,48.5,43.0,30.16,NW,315,0.0,2.0,82,0.00,,,0.00,weatherlink.com 1.10,2014-09-22 10:51:00,
2014-09-22 07:06:00,47.9,43.0,30.16,West,278,0.0,4.0,84,0.00,,,0.00,weatherlink.com 1.10,2014-09-22 11:06:00,
2014-09-22 07:21:00,47.4,43.0,30.17,NNW,330,2.0,4.0,85,0.00,,,0.00,weatherlink.com 1.10,2014-09-22 11:21:00,
2014-09-22 07:36:00,47.3,43.0,30.18,NW,314,1.0,7.0,84,0.00,,,0.00,weatherlink.com 1.10,2014-09-22 11:36:00,
2014-09-22 07:51:00,47.3,43.0,30.18,NNW,335,2.0,6.0,85,0.00,,,0.00,weatherlink.com 1.10,2014-09-22 11:51:00,
2014-09-22 08:06:00,47.6,43.0,30.20,NE,37,2.0,8.0,84,0.00,,,0.00,weatherlink.com 1.10,2014-09-22 12:06:00,
2014-09-22 08:21:00,48.3,43.0,30.20,North,360,3.0,7.0,83,0.00,,,0.00,weatherlink.com 1.10,2014-09-22 12:21:00,
2014-09-22 08:36:00,48.7,43.0,30.20,NW,312,2.0,7.0,82,0.00,,,0.00,weatherlink.com 1.10,2014-09-22 12:36:00,
2014-09-22 08:51:00,49.0,44.0,30.21,NW,323,3.0,5.0,82,0.00,,,0.00,weatherlink.com 1.10,2014-09-22 12:51:00,
2014-09-22 09:06:00,49.6,44.0,30.21,NNW,347,2.0,4.0,81,0.00,,,0.00,weatherlink.com 1.10,2014-09-22 13:06:00,
2014-09-22 09:21:00,50.5,44.0,30.21,West,266,1.0,5.0,79,0.00,,,0.00,weatherlink.com 1.10,2014-09-22 13:21:00,
2014-09-22 09:36:00,50.9,44.0,30.23,NNW,344,3.0,7.0,78,0.00,,,0.00,weatherlink.com 1.10,2014-09-22 13:36:00,
2014-09-22 09:51:00,52.3,45.0,30.23,NW,314,1.0,6.0,76,0.00,,,0.00,weatherlink.com 1.10,2014-09-22 13:51:00,
2014-09-22 10:06:00,52.4,45.0,30.24,North,6,5.0,7.0,75,0.00,,,0.00,weatherlink.com 1.10,2014-09-22 14:06:00,
2014-09-22 10:21:00,53.3,45.0,30.25,NW,325,2.0,6.0,74,0.00,,,0.00,weatherlink.com 1.10,2014-09-22 14:21:00,
2014-09-22 10:36:00,54.4,46.0,30.25,WNW,284,4.0,7.0,72,0.00,,,0.00,weatherlink.com 1.10,2014-09-22 14:36:00,
2014-09-22 10:51:00,54.6,46.0,30.25,NNW,327,4.0,6.0,74,0.00,,,0.00,weatherlink.com 1.10,2014-09-22 14:51:00,
2014-09-22 11:06:00,55.5,46.0,30.25,NNW,330,5.0,6.0,70,0.00,,,0.00,weatherlink.com 1.10,2014-09-22 15:06:00,
2014-09-22 11:21:00,54.9,46.0,30.25,East,81,0.0,6.0,73,0.00,,,0.00,weatherlink.com 1.10,2014-09-22 15:21:00,
2014-09-22 11:36:00,56.7,47.0,30.25,North,354,5.0,6.0,69,0.00,,,0.00,weatherlink.com 1.10,2014-09-22 15:36:00,
2014-09-22 11:51:00,56.0,46.0,30.26,NW,305,2.0,7.0,70,0.00,,,0.00,weatherlink.com 1.10,2014-09-22 15:51:00,
2014-09-22 12:07:00,56.5,46.0,30.27,North,352,4.0,7.0,68,0.00,,,0.00,weatherlink.com 1.10,2014-09-22 16:07:00,
2014-09-22 12:22:00,57.8,46.0,30.27,West,277,2.0,5.0,66,0.00,,,0.00,weatherlink.com 1.10,2014-09-22 16:22:00,
2014-09-22 12:37:00,58.0,46.0,30.27,SE,124,2.0,3.0,65,0.00,,,0.00,weatherlink.com 1.10,2014-09-22 16:37:00,
2014-09-22 13:07:00,58.5,46.0,30.26,NW,317,4.0,8.0,63,0.00,,,0.00,weatherlink.com 1.10,2014-09-22 17:07:00,
2014-09-22 13:22:00,59.0,46.0,30.26,NW,304,2.0,7.0,62,0.00,,,0.00,weatherlink.com 1.10,2014-09-22 17:22:00,
2014-09-22 13:37:00,59.5,46.0,30.26,ESE,115,0.0,7.0,62,0.00,,,0.00,weatherlink.com 1.10,2014-09-22 17:37:00,
2014-09-22 13:52:00,60.4,46.0,30.25,ENE,64,0.0,7.0,60,0.00,,,0.00,weatherlink.com 1.10,2014-09-22 17:52:00,
2014-09-22 14:07:00,60.5,46.0,30.24,WNW,298,2.0,9.0,59,0.00,,,0.00,weatherlink.com 1.10,2014-09-22 18:07:00,
2014-09-22 14:22:00,61.6,46.0,30.24,NNW,336,6.0,7.0,57,0.00,,,0.00,weatherlink.com 1.10,2014-09-22 18:22:00,
2014-09-22 14:37:00,62.0,46.0,30.24,WNW,284,0.0,4.0,57,0.00,,,0.00,weatherlink.com 1.10,2014-09-22 18:37:00,
2014-09-22 14:52:00,62.1,46.0,30.24,NW,306,4.0,6.0,56,0.00,,,0.00,weatherlink.com 1.10,2014-09-22 18:52:00,
2014-09-22 15:07:00,62.6,46.0,30.24,NW,322,2.0,5.0,55,0.00,,,0.00,weatherlink.com 1.10,2014-09-22 19:07:00,
2014-09-22 15:22:00,63.2,47.0,30.24,West,259,0.0,7.0,56,0.00,,,0.00,weatherlink.com 1.10,2014-09-22 19:22:00,
2014-09-22 15:37:00,64.1,47.0,30.23,SSW,200,1.0,5.0,55,0.00,,,0.00,weatherlink.com 1.10,2014-09-22 19:37:00,
2014-09-22 15:52:00,64.5,45.0,30.23,NW,316,1.0,8.0,50,0.00,,,0.00,weatherlink.com 1.10,2014-09-22 19:52:00,
2014-09-22 16:07:00,65.2,46.0,30.23,East,82,3.0,7.0,51,0.00,,,0.00,weatherlink.com 1.10,2014-09-22 20:07:00,
2014-09-22 16:22:00,64.9,45.0,30.23,NNW,347,3.0,7.0,49,0.00,,,0.00,weatherlink.com 1.10,2014-09-22 20:22:00,
2014-09-22 16:37:00,65.1,46.0,30.23,NW,312,3.0,8.0,51,0.00,,,0.00,weatherlink.com 1.10,2014-09-22 20:37:00,
2014-09-22 16:52:00,65.6,46.0,30.23,West,274,1.0,7.0,49,0.00,,,0.00,weatherlink.com 1.10,2014-09-22 20:52:00,
2014-09-22 17:07:00,66.1,47.0,30.23,South,172,2.0,5.0,50,0.00,,,0.00,weatherlink.com 1.10,2014-09-22 21:07:00,
2014-09-22 17:22:00,66.0,46.0,30.23,West,270,1.0,5.0,49,0.00,,,0.00,weatherlink.com 1.10,2014-09-22 21:22:00,
2014-09-22 17:37:00,66.1,46.0,30.23,WNW,287,0.0,6.0,48,0.00,,,0.00,weatherlink.com 1.10,2014-09-22 21:37:00,
2014-09-22 17:52:00,65.3,46.0,30.23,NNE,15,4.0,5.0,50,0.00,,,0.00,weatherlink.com 1.10,2014-09-22 21:52:00,
2014-09-22 18:07:00,64.8,46.0,30.23,NW,318,3.0,6.0,51,0.00,,,0.00,weatherlink.com 1.10,2014-09-22 22:07:00,
2014-09-22 18:22:00,64.5,46.0,30.23,West,264,0.0,4.0,51,0.00,,,0.00,weatherlink.com 1.10,2014-09-22 22:22:00,
2014-09-22 18:37:00,64.2,46.0,30.23,NNW,335,1.0,2.0,51,0.00,,,0.00,weatherlink.com 1.10,2014-09-22 22:37:00,
2014-09-22 18:52:00,63.8,47.0,30.23,NW,311,0.0,2.0,54,0.00,,,0.00,weatherlink.com 1.10,2014-09-22 22:52:00,
2014-09-22 19:07:00,63.1,47.0,30.24,West,280,0.0,1.0,56,0.00,,,0.00,weatherlink.com 1.10,2014-09-22 23:07:00,
2014-09-22 19:22:00,61.4,47.0,30.23,WNW,283,0.0,0.0,60,0.00,,,0.00,weatherlink.com 1.10,2014-09-22 23:22:00,
2014-09-22 19:37:00,59.1,47.0,30.24,WNW,290,2.0,2.0,65,0.00,,,0.00,weatherlink.com 1.10,2014-09-22 23:37:00,
2014-09-22 19:52:00,58.8,47.0,30.24,NW,309,0.0,0.0,65,0.00,,,0.00,weatherlink.com 1.10,2014-09-22 23:52:00,
2014-09-22 20:07:00,57.5,48.0,30.24,NW,309,0.0,0.0,70,0.00,,,0.00,weatherlink.com 1.10,2014-09-23 00:07:00,
2014-09-22 20:22:00,56.0,47.0,30.24,NW,313,1.0,3.0,72,0.00,,,0.00,weatherlink.com 1.10,2014-09-23 00:22:00,
2014-09-22 20:37:00,55.1,47.0,30.25,NW,306,1.0,2.0,75,0.00,,,0.00,weatherlink.com 1.10,2014-09-23 00:37:00,
2014-09-22 20:52:00,54.8,47.0,30.25,NW,325,1.0,2.0,76,0.00,,,0.00,weatherlink.com 1.10,2014-09-23 00:52:00,
2014-09-22 21:07:00,54.8,48.0,30.26,NW,322,0.0,2.0,77,0.00,,,0.00,weatherlink.com 1.10,2014-09-23 01:07:00,
2014-09-22 21:22:00,54.5,48.0,30.27,NNW,329,0.0,2.0,78,0.00,,,0.00,weatherlink.com 1.10,2014-09-23 01:22:00,
2014-09-22 21:37:00,54.6,48.0,30.27,NW,309,0.0,0.0,77,0.00,,,0.00,weatherlink.com 1.10,2014-09-23 01:37:00,
2014-09-22 21:52:00,54.5,47.0,30.27,WNW,288,0.0,0.0,77,0.00,,,0.00,weatherlink.com 1.10,2014-09-23 01:52:00,
2014-09-22 22:07:00,54.6,47.0,30.27,WNW,301,1.0,2.0,76,0.00,,,0.00,weatherlink.com 1.10,2014-09-23 02:07:00,
2014-09-22 22:22:00,54.9,47.0,30.27,WNW,288,1.0,2.0,76,0.00,,,0.00,weatherlink.com 1.10,2014-09-23 02:22:00,
2014-09-22 22:37:00,54.6,47.0,30.28,NW,309,0.0,0.0,76,0.00,,,0.00,weatherlink.com 1.10,2014-09-23 02:37:00,
2014-09-22 22:52:00,52.7,46.0,30.29,NW,309,0.0,0.0,79,0.00,,,0.00,weatherlink.com 1.10,2014-09-23 02:52:00,
2014-09-22 23:07:00,51.6,47.0,30.29,NW,309,0.0,0.0,83,0.00,,,0.00,weatherlink.com 1.10,2014-09-23 03:07:00,
2014-09-22 23:22:00,51.2,47.0,30.30,West,264,0.0,1.0,85,0.00,,,0.00,weatherlink.com 1.10,2014-09-23 03:22:00,